Time;durP1;ratioP1;P1;durP2;ratioP2;P2;SDS_P1;SDS_P2;PMS_P1;PMS_P2;Temp;Humidity;BMP_temperature;BMP_pressure;BME280_temperature;BME280_humidity;BME280_pressure;Samples;Min_cycle;Max_cycle;Signal;HPM_P1;HPM_P2
2021/01/10 00:00:24;;;;;;;23.50;16.77;;;-2.40;33.70;;;;;;5036778;28;20434;-72
2021/01/10 00:02:50;;;;;;;20.17;17.05;;;-2.40;34.00;;;;;;5037464;28;20182;-73
2021/01/10 00:05:34;;;;;;;19.03;15.60;;;-2.40;34.60;;;;;;5037201;28;20179;-72
2021/01/10 00:08:00;;;;;;;22.65;15.98;;;-2.30;35.20;;;;;;5035376;28;20204;-73
2021/01/10 00:10:26;;;;;;;16.58;14.95;;;-2.30;35.60;;;;;;5036855;28;20197;-73
2021/01/10 00:12:58;;;;;;;18.67;15.43;;;-2.30;35.70;;;;;;5037732;28;20171;-74
2021/01/10 00:15:24;;;;;;;20.05;16.08;;;-2.30;35.60;;;;;;5036112;28;20571;-73
2021/01/10 00:17:50;;;;;;;23.70;17.20;;;-2.30;35.90;;;;;;5035336;28;20176;-73
2021/01/10 00:20:20;;;;;;;19.67;16.97;;;-2.40;35.90;;;;;;5033728;28;20442;-73
2021/01/10 00:22:53;;;;;;;17.88;15.00;;;-2.50;36.00;;;;;;5036500;28;20425;-72
2021/01/10 00:25:20;;;;;;;20.63;17.10;;;-2.50;36.40;;;;;;5035613;28;20210;-73
2021/01/10 00:27:45;;;;;;;22.08;17.08;;;-2.50;36.90;;;;;;5036091;28;20203;-73
2021/01/10 00:30:14;;;;;;;22.70;17.50;;;-2.40;37.50;;;;;;5036615;28;20192;-72
2021/01/10 00:32:39;;;;;;;21.92;16.00;;;-2.30;37.80;;;;;;5035941;28;20183;-73
2021/01/10 00:35:07;;;;;;;20.27;15.00;;;-2.30;37.50;;;;;;5036255;28;20179;-72
2021/01/10 00:37:33;;;;;;;21.80;17.27;;;-2.20;37.50;;;;;;5035936;28;20180;-73
2021/01/10 00:39:58;;;;;;;20.67;15.03;;;-2.20;37.20;;;;;;5035878;28;20211;-73
2021/01/10 00:42:24;;;;;;;26.10;17.30;;;-2.10;37.30;;;;;;5036088;28;20410;-73
2021/01/10 00:44:49;;;;;;;17.40;14.33;;;-2.00;35.90;;;;;;5035884;28;20545;-73
2021/01/10 00:47:19;;;;;;;16.13;14.53;;;-2.00;35.40;;;;;;5035617;28;20668;-72
2021/01/10 00:49:46;;;;;;;19.67;15.43;;;-2.00;35.00;;;;;;5035621;28;20183;-73
2021/01/10 00:52:12;;;;;;;22.15;16.38;;;-1.90;35.50;;;;;;5033780;28;20181;-73
2021/01/10 00:54:38;;;;;;;21.40;17.40;;;-2.00;35.00;;;;;;5034253;28;20183;-73
2021/01/10 00:57:05;;;;;;;20.65;16.00;;;-1.90;34.90;;;;;;5035640;28;20182;-73
2021/01/10 00:59:30;;;;;;;19.50;16.17;;;-1.80;34.90;;;;;;5034308;28;20325;-72
2021/01/10 01:01:56;;;;;;;20.77;17.07;;;-1.80;34.70;;;;;;5036347;28;20262;-73
2021/01/10 01:04:21;;;;;;;17.67;14.60;;;-1.70;34.70;;;;;;5034922;28;20692;-73
2021/01/10 01:06:48;;;;;;;21.87;16.43;;;-1.70;35.00;;;;;;5035137;28;20204;-72
2021/01/10 01:09:13;;;;;;;19.95;15.27;;;-1.70;35.10;;;;;;5036210;28;20578;-72
2021/01/10 01:11:40;;;;;;;17.23;13.80;;;-1.60;35.40;;;;;;5035972;28;20189;-73
2021/01/10 01:14:07;;;;;;;18.02;15.13;;;-1.60;35.00;;;;;;5035367;28;20186;-73
2021/01/10 01:16:35;;;;;;;22.48;18.42;;;-1.60;35.40;;;;;;5035127;28;20542;-73
2021/01/10 01:19:01;;;;;;;17.33;15.07;;;-1.60;36.10;;;;;;5034333;28;20660;-72
2021/01/10 01:21:26;;;;;;;18.10;15.77;;;-1.70;35.90;;;;;;5035033;28;20179;-73
2021/01/10 01:23:52;;;;;;;17.97;15.60;;;-1.80;36.80;;;;;;5033450;28;20624;-73
2021/01/10 01:26:23;;;;;;;23.00;17.00;;;-1.90;37.40;;;;;;5034809;28;20277;-73
2021/01/10 01:28:49;;;;;;;18.45;15.77;;;-2.00;38.00;;;;;;5034450;28;20543;-72
2021/01/10 01:31:23;;;;;;;24.58;17.15;;;-2.10;38.70;;;;;;5032807;28;20174;-71
2021/01/10 01:33:50;;;;;;;17.55;15.57;;;-2.10;39.10;;;;;;5034121;28;20164;-72
2021/01/10 01:36:18;;;;;;;21.77;16.13;;;-2.10;39.20;;;;;;5032961;28;20209;-72
2021/01/10 01:38:45;;;;;;;18.45;15.80;;;-2.10;39.30;;;;;;5035702;28;20207;-72
2021/01/10 01:41:11;;;;;;;20.63;16.23;;;-2.10;39.10;;;;;;5032874;28;20191;-73
2021/01/10 01:43:38;;;;;;;25.73;15.63;;;-2.10;39.20;;;;;;5034399;28;20552;-72
2021/01/10 01:46:05;;;;;;;21.08;16.65;;;-2.10;39.50;;;;;;5034468;28;20217;-70
2021/01/10 01:48:31;;;;;;;22.77;15.32;;;-2.10;39.50;;;;;;5036884;28;20206;-72
2021/01/10 01:50:58;;;;;;;24.65;17.48;;;-2.20;39.80;;;;;;5040106;28;20191;-72
2021/01/10 01:53:24;;;;;;;17.98;16.02;;;-2.10;40.00;;;;;;5042749;28;20186;-72
2021/01/10 01:55:52;;;;;;;18.90;15.48;;;-2.20;40.10;;;;;;5039137;28;20206;-73
2021/01/10 01:58:18;;;;;;;18.45;16.35;;;-2.20;40.40;;;;;;5037177;28;20202;-72
2021/01/10 02:00:44;;;;;;;22.48;15.50;;;-2.20;40.80;;;;;;5039092;28;20206;-72
2021/01/10 02:03:17;;;;;;;22.30;19.03;;;-2.20;40.40;;;;;;5043172;28;20180;-70
2021/01/10 02:05:43;;;;;;;18.58;16.08;;;-2.10;40.30;;;;;;5048048;28;20271;-71
2021/01/10 02:08:12;;;;;;;21.20;17.27;;;-2.10;40.50;;;;;;5042983;28;20594;-72
2021/01/10 02:10:42;;;;;;;20.45;18.00;;;-2.10;40.20;;;;;;5035263;28;20266;-73
2021/01/10 02:13:16;;;;;;;25.40;17.90;;;-2.20;40.40;;;;;;5034750;28;20685;-72
2021/01/10 02:15:44;;;;;;;17.90;16.10;;;-2.20;40.80;;;;;;5034858;28;20198;-72
2021/01/10 02:18:10;;;;;;;22.17;17.00;;;-2.20;40.90;;;;;;5033692;28;20202;-73
2021/01/10 02:20:38;;;;;;;21.10;17.60;;;-2.20;40.80;;;;;;5033867;28;20218;-72
2021/01/10 02:23:21;;;;;;;23.42;16.52;;;-2.20;41.00;;;;;;5032804;28;20214;-72
2021/01/10 02:25:49;;;;;;;21.85;17.58;;;-2.10;41.20;;;;;;5034288;28;20229;-72
2021/01/10 02:28:26;;;;;;;21.85;16.63;;;-2.00;41.00;;;;;;5034108;28;20322;-72
2021/01/10 02:30:53;;;;;;;18.23;14.43;;;-2.00;40.50;;;;;;5033574;28;20194;-73
2021/01/10 02:33:21;;;;;;;23.08;17.55;;;-2.00;40.60;;;;;;5033815;28;20172;-72
2021/01/10 02:35:50;;;;;;;21.95;19.30;;;-2.00;40.50;;;;;;5034074;28;20175;-73
2021/01/10 02:38:15;;;;;;;23.52;17.60;;;-2.10;40.50;;;;;;5034344;28;20179;-73
2021/01/10 02:40:53;;;;;;;20.97;18.07;;;-2.10;40.70;;;;;;5069939;23;20225;-74
2021/01/10 02:43:22;;;;;;;24.08;18.60;;;-2.10;40.60;;;;;;5071853;28;20169;-71
2021/01/10 02:45:52;;;;;;;21.27;16.33;;;-2.00;40.60;;;;;;5070387;28;20232;-72
2021/01/10 02:48:19;;;;;;;21.52;17.15;;;-2.00;40.50;;;;;;5072090;28;20240;-72
2021/01/10 02:50:45;;;;;;;23.77;16.90;;;-2.10;40.70;;;;;;5071776;28;20734;-72
2021/01/10 02:53:11;;;;;;;20.63;17.60;;;-2.10;40.60;;;;;;5072483;28;20265;-71
2021/01/10 02:55:36;;;;;;;23.60;18.80;;;-2.10;40.90;;;;;;5072279;28;20512;-72
2021/01/10 02:58:07;;;;;;;26.93;18.73;;;-2.10;41.10;;;;;;5074351;28;20219;-71
2021/01/10 03:00:33;;;;;;;25.30;17.52;;;-2.10;41.30;;;;;;5075178;28;20969;-72
2021/01/10 03:03:01;;;;;;;25.40;16.70;;;-2.10;41.50;;;;;;5076288;28;20204;-72
2021/01/10 03:05:28;;;;;;;22.17;18.23;;;-2.10;41.40;;;;;;5073606;28;20655;-71
2021/01/10 03:07:55;;;;;;;19.17;16.70;;;-2.00;41.20;;;;;;5072221;28;20616;-72
2021/01/10 03:10:21;;;;;;;17.02;15.38;;;-2.00;41.10;;;;;;5072246;28;20186;-71
2021/01/10 03:12:47;;;;;;;18.87;15.53;;;-1.90;41.00;;;;;;5070825;28;20765;-72
2021/01/10 03:15:14;;;;;;;19.25;16.08;;;-1.80;40.50;;;;;;5072474;28;20268;-71
2021/01/10 03:17:45;;;;;;;20.48;16.85;;;-1.80;40.40;;;;;;5072428;28;20273;-72
2021/01/10 03:20:16;;;;;;;25.33;17.38;;;-1.80;40.30;;;;;;5071340;28;20194;-71
2021/01/10 03:22:44;;;;;;;31.35;17.85;;;-1.80;40.40;;;;;;5070339;28;20541;-72
2021/01/10 03:25:11;;;;;;;19.63;16.20;;;-1.80;40.40;;;;;;5070276;28;20174;-71
2021/01/10 03:27:36;;;;;;;18.40;14.98;;;-1.90;40.20;;;;;;5085750;28;20201;-71
2021/01/10 03:30:20;;;;;;;22.10;17.37;;;-1.90;40.30;;;;;;5071229;28;20200;-71
2021/01/10 03:32:46;;;;;;;18.90;15.52;;;-1.90;40.40;;;;;;5073826;28;20171;-71
2021/01/10 03:35:15;;;;;;;23.37;17.33;;;-2.00;40.60;;;;;;5073819;28;20235;-72
2021/01/10 03:37:41;;;;;;;22.75;14.98;;;-1.90;40.60;;;;;;5073736;28;20192;-72
2021/01/10 03:40:07;;;;;;;19.83;17.73;;;-2.00;40.70;;;;;;5073348;28;20230;-71
2021/01/10 03:42:34;;;;;;;18.25;15.95;;;-2.00;40.70;;;;;;5073684;28;20436;-72
2021/01/10 03:45:00;;;;;;;22.02;17.67;;;-2.00;41.10;;;;;;5073740;28;20186;-71
2021/01/10 03:47:26;;;;;;;23.33;16.10;;;-1.90;41.00;;;;;;5073665;28;20555;-71
2021/01/10 03:49:51;;;;;;;26.13;18.13;;;-1.90;40.70;;;;;;5073398;28;20489;-72
2021/01/10 03:52:17;;;;;;;19.07;15.20;;;-2.00;40.80;;;;;;5072463;28;20177;-72
2021/01/10 03:54:42;;;;;;;24.63;17.77;;;-1.90;40.80;;;;;;5073437;28;20189;-71
2021/01/10 03:57:08;;;;;;;22.60;16.33;;;-1.90;40.50;;;;;;5073422;28;20190;-71
2021/01/10 03:59:33;;;;;;;16.43;14.17;;;-1.90;40.40;;;;;;5073111;28;20201;-71
2021/01/10 04:01:59;;;;;;;19.63;17.57;;;-1.80;40.20;;;;;;5073354;28;20182;-72
2021/01/10 04:04:24;;;;;;;17.20;15.37;;;-1.70;39.90;;;;;;5072214;28;20202;-72
2021/01/10 04:06:50;;;;;;;18.70;15.33;;;-1.80;39.70;;;;;;5071819;28;20343;-71
2021/01/10 04:09:15;;;;;;;20.57;15.10;;;-1.70;39.20;;;;;;5073064;28;20181;-71
2021/01/10 04:11:41;;;;;;;25.53;16.83;;;-1.60;37.90;;;;;;5073594;28;20166;-71
2021/01/10 04:14:06;;;;;;;20.33;14.93;;;-1.70;38.40;;;;;;5073279;28;20215;-72
2021/01/10 04:16:32;;;;;;;22.63;16.43;;;-1.70;38.60;;;;;;5073061;28;20177;-71
2021/01/10 04:18:58;;;;;;;23.37;17.13;;;-1.70;38.70;;;;;;5071401;28;20262;-71
2021/01/10 04:21:30;;;;;;;19.03;15.17;;;-1.60;38.90;;;;;;5071803;28;20201;-72
2021/01/10 04:23:55;;;;;;;16.50;13.85;;;-1.60;38.70;;;;;;5073239;28;20205;-71
2021/01/10 04:26:21;;;;;;;17.13;9.30;;;-1.50;38.30;;;;;;5072920;28;20217;-72
2021/01/10 04:28:46;;;;;;;5.13;4.60;;;-1.40;34.80;;;;;;5072753;28;20644;-72
2021/01/10 04:31:12;;;;;;;9.80;5.20;;;-1.30;31.30;;;;;;5072867;28;20588;-71
2021/01/10 04:33:37;;;;;;;20.30;13.10;;;-1.20;30.10;;;;;;5073408;28;20520;-71
2021/01/10 04:36:03;;;;;;;19.07;13.67;;;-1.10;31.80;;;;;;5072833;28;20179;-72
2021/01/10 04:38:29;;;;;;;10.70;9.37;;;-1.20;33.00;;;;;;5088289;28;20629;-72
2021/01/10 04:40:56;;;;;;;15.50;13.10;;;-1.20;33.00;;;;;;5072083;28;20465;-71
2021/01/10 04:43:22;;;;;;;12.63;11.23;;;-1.20;33.00;;;;;;5072685;28;20603;-71
2021/01/10 04:45:49;;;;;;;14.80;12.57;;;-1.30;33.50;;;;;;5072615;28;20209;-71
2021/01/10 04:48:14;;;;;;;20.45;14.30;;;-1.30;33.30;;;;;;5088174;28;20572;-71
2021/01/10 04:50:40;;;;;;;15.67;13.13;;;-1.40;34.40;;;;;;5070881;28;20197;-72
2021/01/10 04:53:08;;;;;;;16.50;11.90;;;-1.50;35.10;;;;;;5072327;28;20284;-71
2021/01/10 04:55:36;;;;;;;20.33;14.77;;;-1.60;35.80;;;;;;5072389;28;20181;-72
2021/01/10 04:58:08;;;;;;;15.18;13.63;;;-1.60;36.10;;;;;;5072379;28;20672;-72
2021/01/10 05:00:35;;;;;;;13.15;10.52;;;-1.60;36.30;;;;;;5070705;28;20252;-72
2021/01/10 05:03:09;;;;;;;16.90;12.00;;;-1.60;35.80;;;;;;5072159;28;20241;-71
2021/01/10 05:05:35;;;;;;;14.57;11.43;;;-1.60;36.10;;;;;;5072116;28;20635;-71
2021/01/10 05:08:05;;;;;;;14.90;12.13;;;-1.60;35.90;;;;;;5071896;28;20197;-72
2021/01/10 05:10:31;;;;;;;16.35;14.40;;;-1.70;36.10;;;;;;5071744;28;20624;-72
2021/01/10 05:12:57;;;;;;;16.40;13.17;;;-1.70;36.40;;;;;;5070650;28;20269;-71
2021/01/10 05:15:22;;;;;;;20.17;14.00;;;-1.80;36.60;;;;;;5070504;28;20170;-71
2021/01/10 05:17:55;;;;;;;12.90;11.60;;;-1.80;36.60;;;;;;5071749;28;20179;-71
2021/01/10 05:20:23;;;;;;;15.48;13.98;;;-1.80;36.60;;;;;;5071389;28;20624;-71
2021/01/10 05:22:49;;;;;;;19.60;14.25;;;-1.90;37.00;;;;;;5071844;28;20269;-71
2021/01/10 05:25:16;;;;;;;14.93;13.18;;;-1.80;37.10;;;;;;5071813;28;20562;-71
2021/01/10 05:27:46;;;;;;;15.65;14.05;;;-1.90;36.80;;;;;;5087187;28;20210;-71
2021/01/10 05:30:12;;;;;;;15.82;12.50;;;-1.90;37.00;;;;;;5071237;28;20186;-71
2021/01/10 05:32:38;;;;;;;12.88;11.57;;;-1.80;36.60;;;;;;5071597;28;20643;-71
2021/01/10 05:35:04;;;;;;;10.20;8.40;;;-1.70;35.80;;;;;;5071552;28;20252;-71
2021/01/10 05:37:30;;;;;;;13.15;11.02;;;-1.80;34.80;;;;;;5071961;28;20259;-71
2021/01/10 05:39:56;;;;;;;15.07;13.10;;;-1.70;35.00;;;;;;5069871;28;20215;-71
2021/01/10 05:42:28;;;;;;;11.40;10.20;;;-1.70;35.10;;;;;;5071434;28;20182;-71
2021/01/10 05:44:54;;;;;;;11.98;10.10;;;-1.70;35.60;;;;;;5069882;28;20178;-72
2021/01/10 05:47:20;;;;;;;14.47;10.10;;;-1.70;34.80;;;;;;5069908;28;20209;-72
2021/01/10 05:49:51;;;;;;;14.83;12.77;;;-1.70;34.90;;;;;;5070941;28;20212;-72
2021/01/10 05:52:18;;;;;;;16.08;11.52;;;-1.70;35.70;;;;;;5070690;28;20577;-72
2021/01/10 05:54:45;;;;;;;16.17;12.15;;;-1.80;35.80;;;;;;5071327;28;20181;-71
2021/01/10 05:57:13;;;;;;;15.75;13.00;;;-1.80;36.20;;;;;;5071170;28;20193;-72
2021/01/10 05:59:49;;;;;;;14.65;12.10;;;-1.80;36.60;;;;;;5071340;28;20190;-71
2021/01/10 06:02:27;;;;;;;15.85;11.93;;;-1.80;36.70;;;;;;5069810;28;20184;-71
2021/01/10 06:05:12;;;;;;;19.80;14.60;;;-1.80;36.10;;;;;;5071094;28;20686;-72
2021/01/10 06:07:38;;;;;;;15.07;12.57;;;-1.80;36.60;;;;;;5069664;28;20201;-71
2021/01/10 06:10:06;;;;;;;21.88;12.43;;;-1.90;37.00;;;;;;5086468;28;20207;-71
2021/01/10 06:12:32;;;;;;;17.77;11.35;;;-1.90;37.10;;;;;;5071314;28;20174;-71
2021/01/10 06:15:15;;;;;;;17.87;12.40;;;-1.80;36.90;;;;;;5071024;28;20173;-71
2021/01/10 06:17:49;;;;;;;18.27;12.60;;;-1.80;36.50;;;;;;5086629;28;20178;-71
2021/01/10 06:20:27;;;;;;;15.43;11.68;;;-1.90;37.00;;;;;;5070598;28;20612;-71
2021/01/10 06:22:58;;;;;;;15.15;13.13;;;-1.90;37.50;;;;;;5070857;28;20188;-71
2021/01/10 06:25:27;;;;;;;22.92;13.98;;;-2.00;37.50;;;;;;5070968;28;20211;-72
2021/01/10 06:28:02;;;;;;;19.80;10.60;;;-2.00;38.10;;;;;;5070977;28;20203;-71
2021/01/10 06:30:32;;;;;;;14.65;12.95;;;-2.10;37.90;;;;;;5070834;28;20220;-71
2021/01/10 06:33:12;;;;;;;16.35;14.68;;;-2.10;38.50;;;;;;5070935;28;20188;-71
2021/01/10 06:35:39;;;;;;;14.63;13.07;;;-2.20;38.80;;;;;;5070747;28;20713;-70
2021/01/10 06:38:07;;;;;;;21.33;13.82;;;-2.20;39.10;;;;;;5070815;28;20182;-72
2021/01/10 06:40:34;;;;;;;17.58;14.82;;;-2.10;39.00;;;;;;5070261;28;20251;-71
2021/01/10 06:43:03;;;;;;;19.30;12.93;;;-2.10;39.00;;;;;;5068243;28;20659;-72
2021/01/10 06:45:34;;;;;;;15.57;12.85;;;-2.20;39.00;;;;;;5050248;28;20182;-72
2021/01/10 06:48:00;;;;;;;16.35;12.65;;;-2.10;38.90;;;;;;5049234;28;20213;-72
2021/01/10 06:50:26;;;;;;;15.93;13.67;;;-2.00;38.50;;;;;;5050162;28;20567;-72
2021/01/10 06:52:54;;;;;;;16.98;13.50;;;-2.00;38.40;;;;;;5050957;28;20413;-72
2021/01/10 06:55:19;;;;;;;14.88;11.20;;;-2.00;38.30;;;;;;5050628;28;20266;-72
2021/01/10 06:57:45;;;;;;;10.40;9.40;;;-1.90;37.80;;;;;;5050221;28;20273;-72
2021/01/10 07:00:11;;;;;;;11.27;7.93;;;-1.80;36.20;;;;;;5050020;28;20194;-72
2021/01/10 07:03:07;;;;;;;14.73;10.27;;;-1.80;34.60;;;;;;5062353;28;20189;-72
2021/01/10 07:06:11;;;;;;;8.32;7.50;;;-1.70;34.00;;;;;;5074257;28;20170;-72
2021/01/10 07:08:55;;;;;;;12.25;9.55;;;-1.50;32.90;;;;;;5072996;28;20208;-72
2021/01/10 07:11:20;;;;;;;12.00;8.15;;;-1.50;32.70;;;;;;5074305;28;20593;-72
2021/01/10 07:13:47;;;;;;;10.47;9.37;;;-1.50;32.70;;;;;;5074310;28;20178;-72
2021/01/10 07:16:18;;;;;;;7.18;6.50;;;-1.40;32.30;;;;;;5072860;28;20544;-71
2021/01/10 07:18:50;;;;;;;6.63;6.03;;;-1.40;30.30;;;;;;5074737;28;20188;-73
2021/01/10 07:21:36;;;;;;;7.60;6.35;;;-1.20;29.40;;;;;;5074361;28;20572;-73
2021/01/10 07:24:15;;;;;;;6.13;5.53;;;-1.10;28.70;;;;;;5068399;28;20189;-73
2021/01/10 07:26:42;;;;;;;6.63;5.97;;;-1.10;28.60;;;;;;5054500;28;20171;-73
2021/01/10 07:29:29;;;;;;;6.82;6.22;;;-1.00;28.50;;;;;;5064118;28;20184;-72
2021/01/10 07:32:01;;;;;;;6.35;5.75;;;-0.90;28.30;;;;;;5077057;28;20174;-73
2021/01/10 07:34:28;;;;;;;7.55;6.32;;;-0.90;28.20;;;;;;5077580;28;20175;-73
2021/01/10 07:37:02;;;;;;;9.65;6.00;;;-0.90;28.20;;;;;;5075590;28;20191;-73
2021/01/10 07:39:29;;;;;;;7.70;5.60;;;-0.80;27.80;;;;;;5073772;28;20576;-73
2021/01/10 07:42:28;;;;;;;7.45;5.93;;;-0.80;27.40;;;;;;5075912;28;20178;-73
2021/01/10 07:44:59;;;;;;;7.63;6.93;;;-0.80;27.90;;;;;;5062819;28;20286;-73
2021/01/10 07:47:34;;;;;;;7.13;5.85;;;-0.70;28.10;;;;;;5062308;28;20502;-73
2021/01/10 07:50:05;;;;;;;5.03;4.53;;;-0.70;28.10;;;;;;5070110;28;20206;-73
2021/01/10 07:52:46;;;;;;;6.78;6.07;;;-0.60;27.30;;;;;;5060079;28;20245;-69
2021/01/10 07:55:20;;;;;;;8.35;7.53;;;-0.60;27.50;;;;;;5057429;28;20176;-73
2021/01/10 07:57:46;;;;;;;6.13;5.60;;;-0.60;27.60;;;;;;5057222;28;20181;-72
2021/01/10 08:00:13;;;;;;;5.90;5.40;;;-0.50;27.70;;;;;;5056384;28;20215;-72
2021/01/10 08:02:55;;;;;;;13.90;6.63;;;-0.40;27.70;;;;;;5054450;28;20617;-77
2021/01/10 08:05:41;;;;;;;11.18;5.75;;;-0.40;27.10;;;;;;5056823;28;20226;-72
2021/01/10 08:08:06;;;;;;;6.03;5.43;;;-0.40;26.90;;;;;;5056286;28;20210;-73
2021/01/10 08:10:46;;;;;;;6.87;5.03;;;-0.30;27.00;;;;;;5056093;28;20195;-73
2021/01/10 08:13:45;;;;;;;6.40;5.57;;;-0.40;26.60;;;;;;5056652;28;20748;-73
2021/01/10 08:16:29;;;;;;;4.75;4.35;;;-0.30;26.80;;;;;;5056198;28;20209;-72
2021/01/10 08:19:00;;;;;;;5.22;4.72;;;-0.30;26.90;;;;;;5052050;28;20177;-72
2021/01/10 08:21:26;;;;;;;6.90;6.20;;;-0.30;26.80;;;;;;5053410;28;20255;-73
2021/01/10 08:23:55;;;;;;;6.80;6.10;;;-0.20;26.70;;;;;;5052296;28;20213;-71
2021/01/10 08:26:21;;;;;;;7.43;5.40;;;-0.10;26.40;;;;;;5052168;28;20182;-73
2021/01/10 08:28:57;;;;;;;5.85;5.32;;;-0.10;26.20;;;;;;5053218;28;20215;-72
2021/01/10 08:31:25;;;;;;;5.05;4.55;;;0.00;26.40;;;;;;5051959;28;20705;-73
2021/01/10 08:34:06;;;;;;;6.22;5.50;;;0.10;26.20;;;;;;5053169;28;20176;-72
2021/01/10 08:36:35;;;;;;;5.10;4.60;;;0.20;26.00;;;;;;5051695;28;20263;-73
2021/01/10 08:39:09;;;;;;;8.45;7.60;;;0.20;25.80;;;;;;5051521;28;20217;-72
2021/01/10 08:41:42;;;;;;;5.93;5.32;;;0.20;26.20;;;;;;5053731;28;20196;-72
2021/01/10 08:44:18;;;;;;;10.63;6.80;;;0.10;26.00;;;;;;5054548;28;20173;-73
2021/01/10 08:46:48;;;;;;;7.30;5.03;;;0.10;25.60;;;;;;5053255;28;20526;-73
2021/01/10 08:49:16;;;;;;;7.88;6.43;;;0.20;25.30;;;;;;5052939;28;20180;-72
2021/01/10 08:51:43;;;;;;;10.13;8.57;;;0.30;25.30;;;;;;5053205;28;20175;-72
2021/01/10 08:54:17;;;;;;;11.38;8.45;;;0.20;26.60;;;;;;5053073;28;20176;-73
2021/01/10 08:56:44;;;;;;;12.70;9.48;;;0.30;27.10;;;;;;5052900;28;20188;-73
2021/01/10 08:59:11;;;;;;;10.75;8.68;;;0.30;27.10;;;;;;5052436;28;20646;-72
2021/01/10 09:01:37;;;;;;;7.47;6.85;;;0.30;26.50;;;;;;5051600;28;20186;-73
2021/01/10 09:04:05;;;;;;;6.65;5.45;;;0.40;25.40;;;;;;5052832;28;20588;-72
2021/01/10 09:07:05;;;;;;;7.05;6.32;;;0.50;25.50;;;;;;5052922;28;20169;-72
2021/01/10 09:09:30;;;;;;;6.72;5.95;;;0.60;25.50;;;;;;5051954;28;20620;-72
2021/01/10 09:12:18;;;;;;;6.30;5.47;;;0.60;24.30;;;;;;5052137;28;20178;-72
2021/01/10 09:14:53;;;;;;;5.13;4.63;;;0.60;23.90;;;;;;5052485;28;20200;-72
2021/01/10 09:17:25;;;;;;;5.53;5.05;;;0.50;24.20;;;;;;5052137;28;20175;-72
2021/01/10 09:19:54;;;;;;;5.70;5.20;;;0.60;24.40;;;;;;5052078;28;20281;-72
2021/01/10 09:22:25;;;;;;;5.85;5.18;;;0.70;24.00;;;;;;5050898;28;20685;-72
2021/01/10 09:24:50;;;;;;;6.80;5.40;;;0.70;24.20;;;;;;5052083;28;20216;-72
2021/01/10 09:27:16;;;;;;;7.37;5.60;;;0.70;24.20;;;;;;5050944;28;20631;-72
2021/01/10 09:29:43;;;;;;;6.13;5.63;;;0.70;24.10;;;;;;5052078;28;20586;-72
2021/01/10 09:32:22;;;;;;;7.03;6.32;;;0.70;23.80;;;;;;5052025;28;20184;-73
2021/01/10 09:34:55;;;;;;;15.70;11.70;;;0.70;24.00;;;;;;5050706;28;20243;-73
2021/01/10 09:37:26;;;;;;;10.07;9.10;;;0.70;25.60;;;;;;5052068;28;20182;-73
2021/01/10 09:39:52;;;;;;;6.35;5.85;;;0.80;25.60;;;;;;5049636;28;20308;-73
2021/01/10 09:42:19;;;;;;;5.10;4.57;;;0.90;24.20;;;;;;5051569;28;20284;-73
2021/01/10 09:44:58;;;;;;;5.93;5.22;;;0.90;22.80;;;;;;5051599;28;20208;-73
2021/01/10 09:47:35;;;;;;;6.80;6.18;;;0.90;23.20;;;;;;5051635;28;20215;-73
2021/01/10 09:50:07;;;;;;;5.75;4.88;;;0.90;23.10;;;;;;5051397;28;20206;-73
2021/01/10 09:52:48;;;;;;;6.35;5.75;;;0.80;22.50;;;;;;5051657;28;20185;-72
2021/01/10 09:55:14;;;;;;;5.82;5.28;;;0.80;22.90;;;;;;5051636;28;20198;-72
2021/01/10 09:57:40;;;;;;;6.50;5.93;;;0.70;22.90;;;;;;5050239;28;20185;-73
2021/01/10 10:00:14;;;;;;;5.37;4.87;;;0.70;23.10;;;;;;5049820;28;20204;-72
2021/01/10 10:02:41;;;;;;;5.32;4.85;;;0.70;23.20;;;;;;5051518;28;20185;-72
2021/01/10 10:05:19;;;;;;;6.45;5.72;;;0.80;23.00;;;;;;5051361;28;20209;-72
2021/01/10 10:07:49;;;;;;;8.20;7.40;;;0.80;22.70;;;;;;5051200;28;20220;-73
2021/01/10 10:10:20;;;;;;;8.35;7.50;;;0.90;23.60;;;;;;5050960;28;20219;-73
2021/01/10 10:13:04;;;;;;;10.15;8.15;;;0.90;24.10;;;;;;5051170;28;20200;-73
2021/01/10 10:15:42;;;;;;;6.47;5.93;;;1.10;23.80;;;;;;5051449;28;20174;-73
2021/01/10 10:18:15;;;;;;;5.70;5.30;;;1.30;22.50;;;;;;5051334;28;20183;-72
2021/01/10 10:20:40;;;;;;;6.68;5.03;;;1.30;21.90;;;;;;5050630;28;20744;-73
2021/01/10 10:23:12;;;;;;;7.50;6.00;;;1.30;22.00;;;;;;5052375;28;20265;-73
2021/01/10 10:25:39;;;;;;;5.50;5.00;;;1.30;22.10;;;;;;5051107;28;20782;-73
2021/01/10 10:28:05;;;;;;;6.22;5.55;;;1.30;22.00;;;;;;5050699;28;20321;-72
2021/01/10 10:30:31;;;;;;;6.57;5.90;;;1.40;21.80;;;;;;5049251;28;20197;-71
2021/01/10 10:32:57;;;;;;;4.75;4.45;;;1.50;21.10;;;;;;5050897;28;20626;-71
2021/01/10 10:35:23;;;;;;;5.55;5.05;;;1.60;21.20;;;;;;5050835;28;20178;-71
2021/01/10 10:37:50;;;;;;;8.53;6.27;;;1.60;21.10;;;;;;5050690;28;20188;-72
2021/01/10 10:40:17;;;;;;;6.70;6.07;;;1.60;21.10;;;;;;5048956;28;20709;-71
2021/01/10 10:42:42;;;;;;;6.38;5.78;;;1.40;21.90;;;;;;5050659;28;20208;-71
2021/01/10 10:45:09;;;;;;;7.67;6.87;;;1.20;21.40;;;;;;5050942;28;20721;-72
2021/01/10 10:47:34;;;;;;;6.97;6.43;;;1.30;21.80;;;;;;5050812;28;20202;-73
2021/01/10 10:50:00;;;;;;;7.77;6.50;;;1.30;21.80;;;;;;5050875;28;20284;-73
2021/01/10 10:52:26;;;;;;;7.37;6.67;;;1.30;22.00;;;;;;5050494;28;20818;-73
2021/01/10 10:54:51;;;;;;;10.83;7.90;;;1.20;21.90;;;;;;5050606;28;20177;-71
2021/01/10 10:57:17;;;;;;;7.30;6.33;;;1.20;21.60;;;;;;5050570;28;20184;-71
2021/01/10 10:59:42;;;;;;;5.87;5.47;;;1.10;21.80;;;;;;5050466;28;20242;-71
2021/01/10 11:02:09;;;;;;;7.43;6.63;;;1.20;21.90;;;;;;5050628;28;20230;-71
2021/01/10 11:04:38;;;;;;;10.55;9.48;;;1.10;21.50;;;;;;5051018;28;20185;-71
2021/01/10 11:07:04;;;;;;;8.98;7.80;;;1.10;21.80;;;;;;5050849;28;20193;-71
2021/01/10 11:09:29;;;;;;;22.80;14.57;;;1.10;21.80;;;;;;5050202;28;20241;-72
2021/01/10 11:11:55;;;;;;;8.20;7.50;;;1.10;21.80;;;;;;5050651;28;20181;-72
2021/01/10 11:14:21;;;;;;;8.37;7.67;;;1.00;21.70;;;;;;5050642;28;20232;-71
2021/01/10 11:16:48;;;;;;;10.37;8.00;;;1.00;22.50;;;;;;5050763;28;20172;-71
2021/01/10 11:19:14;;;;;;;7.10;6.45;;;1.00;21.70;;;;;;5050148;28;20199;-71
2021/01/10 11:21:41;;;;;;;13.50;8.50;;;1.00;21.80;;;;;;5050529;28;20189;-72
2021/01/10 11:24:08;;;;;;;7.88;7.28;;;0.90;21.70;;;;;;5050563;28;20412;-72
2021/01/10 11:26:36;;;;;;;6.35;5.75;;;0.90;22.10;;;;;;5050758;28;20180;-72
2021/01/10 11:29:04;;;;;;;7.18;6.25;;;;;;;;;;5051079;28;20174;-72
2021/01/10 11:31:34;;;;;;;7.25;6.55;;;0.90;22.10;;;;;;5050539;28;20539;-72
2021/01/10 11:34:04;;;;;;;6.47;5.88;;;1.00;22.50;;;;;;5050141;28;20179;-72
2021/01/10 11:36:31;;;;;;;5.97;5.57;;;1.20;21.90;;;;;;5050700;28;20189;-72
2021/01/10 11:38:56;;;;;;;6.68;6.15;;;1.10;21.60;;;;;;5050360;28;20542;-72
2021/01/10 11:41:23;;;;;;;7.23;6.53;;;1.20;21.80;;;;;;5050297;28;20212;-72
2021/01/10 11:43:49;;;;;;;7.28;6.00;;;1.30;21.90;;;;;;5050152;28;20213;-72
2021/01/10 11:46:15;;;;;;;7.00;6.07;;;1.30;21.30;;;;;;5050116;28;20269;-72
2021/01/10 11:48:41;;;;;;;7.05;6.38;;;1.20;21.80;;;;;;5050069;28;20210;-72
2021/01/10 11:51:08;;;;;;;7.95;6.38;;;1.20;21.80;;;;;;5050034;28;20222;-72
2021/01/10 11:53:34;;;;;;;6.93;6.15;;;1.20;21.90;;;;;;5053692;28;20706;-73
2021/01/10 11:56:00;;;;;;;8.20;6.07;;;1.10;21.80;;;;;;5053558;28;20269;-73
2021/01/10 11:58:27;;;;;;;8.32;7.63;;;1.10;22.10;;;;;;5053569;28;20211;-73
2021/01/10 12:00:53;;;;;;;8.27;6.82;;;1.10;22.10;;;;;;5053164;28;20201;-73
2021/01/10 12:03:20;;;;;;;9.93;7.45;;;1.20;22.10;;;;;;5053534;28;20181;-73
2021/01/10 12:05:45;;;;;;;7.85;7.05;;;1.30;21.90;;;;;;5054015;28;20190;-72
2021/01/10 12:08:11;;;;;;;8.47;7.77;;;1.40;22.00;;;;;;5053597;28;20557;-72
2021/01/10 12:10:37;;;;;;;7.63;6.80;;;1.50;21.80;;;;;;5053269;28;20465;-74
2021/01/10 12:13:03;;;;;;;7.80;7.00;;;1.60;20.70;;;;;;5053918;28;20655;-73
2021/01/10 12:15:33;;;;;;;9.23;7.85;;;1.70;21.10;;;;;;5053285;28;20324;-73
2021/01/10 12:18:03;;;;;;;9.00;8.15;;;1.70;21.20;;;;;;5053515;28;20176;-73
2021/01/10 12:20:30;;;;;;;8.23;7.53;;;1.60;20.90;;;;;;5052847;28;20675;-73
2021/01/10 12:22:55;;;;;;;7.82;7.13;;;1.60;21.50;;;;;;5053054;28;20642;-73
2021/01/10 12:25:22;;;;;;;8.07;7.20;;;1.70;21.30;;;;;;5052914;28;20177;-73
2021/01/10 12:27:48;;;;;;;7.78;6.93;;;1.80;21.00;;;;;;5052843;28;20212;-73
2021/01/10 12:30:14;;;;;;;9.55;8.07;;;1.90;20.70;;;;;;5054993;28;20202;-74
2021/01/10 12:32:40;;;;;;;9.35;8.40;;;2.00;20.90;;;;;;5057673;28;20619;-74
2021/01/10 12:35:11;;;;;;;8.47;7.83;;;2.10;20.30;;;;;;5060112;28;20205;-74
2021/01/10 12:37:38;;;;;;;7.80;7.20;;;2.20;20.40;;;;;;5058597;28;20179;-74
2021/01/10 12:40:08;;;;;;;9.35;8.50;;;2.00;19.30;;;;;;5060259;28;20206;-74
2021/01/10 12:42:34;;;;;;;8.88;8.18;;;2.00;19.90;;;;;;5058616;28;20174;-71
2021/01/10 12:45:01;;;;;;;8.30;7.60;;;1.90;20.50;;;;;;5060288;28;20190;-74
2021/01/10 12:47:26;;;;;;;8.63;7.95;;;1.70;20.10;;;;;;5059417;28;20691;-74